Time,TemperatureF,DewpointF,PressureIn,WindDirection,WindDirectionDegrees,WindSpeedMPH,WindSpeedGustMPH,Humidity,HourlyPrecipIn,Conditions,Clouds,dailyrainin,SoftwareType,DateUTC
2013-03-10 00:00:00,60.7,38.5,29.15,SSE,158,1.3,2.2,44,0.00,,,0.00,WUHU216HW,2013-03-10 06:00:00,
2013-03-10 00:05:00,60.5,38.3,29.15,SE,135,1.1,2.2,44,0.00,,,0.00,WUHU216HW,2013-03-10 06:05:00,
2013-03-10 00:10:00,60.3,39.3,29.15,SE,135,1.6,2.2,46,0.00,,,0.00,WUHU216HW,2013-03-10 06:10:00,
2013-03-10 00:15:00,60.1,39.2,29.15,NW,315,1.3,1.8,46,0.00,,,0.00,WUHU216HW,2013-03-10 06:15:00,
2013-03-10 00:20:00,60.1,39.8,29.15,South,180,0.7,2.2,47,0.00,,,0.00,WUHU216HW,2013-03-10 06:20:00,
2013-03-10 00:25:00,59.9,39.6,29.15,ENE,68,2.5,2.7,47,0.00,,,0.00,WUHU216HW,2013-03-10 06:25:00,
2013-03-10 00:30:00,59.9,40.1,29.15,East,90,0.4,2.7,48,0.00,,,0.00,WUHU216HW,2013-03-10 06:30:00,
2013-03-10 00:35:00,59.9,40.8,29.15,East,90,5.4,5.4,49,0.00,,,0.00,WUHU216HW,2013-03-10 06:35:00,
2013-03-10 00:40:00,59.8,40.6,29.15,East,90,1.6,5.4,49,0.00,,,0.00,WUHU216HW,2013-03-10 06:40:00,
2013-03-10 00:45:00,59.8,42.1,29.15,SE,135,1.6,2.9,52,0.00,,,0.00,WUHU216HW,2013-03-10 06:45:00,
2013-03-10 00:50:00,59.6,42.0,29.15,SSE,158,1.1,2.9,52,0.00,,,0.00,WUHU216HW,2013-03-10 06:50:00,
2013-03-10 00:55:00,59.4,42.2,29.14,SW,225,1.1,2.2,53,0.00,,,0.00,WUHU216HW,2013-03-10 06:55:00,
2013-03-10 01:00:00,59.4,42.8,29.14,North,0,1.3,3.6,54,0.00,,,0.00,WUHU216HW,2013-03-10 07:00:00,
2013-03-10 01:05:00,59.2,42.6,29.14,East,90,0.7,3.6,54,0.00,,,0.00,WUHU216HW,2013-03-10 07:05:00,
2013-03-10 01:10:00,59.2,42.6,29.13,East,90,1.1,1.8,54,0.00,,,0.00,WUHU216HW,2013-03-10 07:10:00,
2013-03-10 01:15:00,59.2,42.6,29.13,SE,135,0.0,1.6,54,0.00,,,0.00,WUHU216HW,2013-03-10 07:15:00,
2013-03-10 01:20:00,59.0,42.4,29.12,SE,135,0.2,1.6,54,0.00,,,0.00,WUHU216HW,2013-03-10 07:20:00,
2013-03-10 01:25:00,59.0,42.8,29.12,SE,135,0.4,2.5,55,0.00,,,0.00,WUHU216HW,2013-03-10 07:25:00,
2013-03-10 01:30:00,58.9,42.7,29.12,SSE,158,1.1,2.5,55,0.00,,,0.00,WUHU216HW,2013-03-10 07:30:00,
2013-03-10 01:35:00,58.9,42.7,29.12,East,90,1.8,1.8,55,0.00,,,0.00,WUHU216HW,2013-03-10 07:35:00,
2013-03-10 01:40:00,58.7,42.0,29.13,NE,45,0.4,2.7,54,0.00,,,0.00,WUHU216HW,2013-03-10 07:40:00,
2013-03-10 01:45:00,58.7,42.5,29.14,SE,135,0.4,2.7,55,0.00,,,0.00,WUHU216HW,2013-03-10 07:45:00,
2013-03-10 01:50:00,58.3,42.7,29.15,SE,135,0.4,1.6,56,0.00,,,0.00,WUHU216HW,2013-03-10 07:50:00,
2013-03-10 01:55:00,58.3,42.7,29.15,SE,135,0.0,0.9,56,0.01,,,0.00,WUHU216HW,2013-03-10 07:55:00,
2013-03-10 03:00:00,58.1,43.5,29.15,SE,135,0.9,0.9,58,0.01,,,0.00,WUHU216HW,2013-03-10 08:00:00,
2013-03-10 03:05:00,58.0,43.7,29.14,ESE,113,0.0,0.9,59,0.01,,,0.00,WUHU216HW,2013-03-10 08:05:00,
2013-03-10 03:10:00,57.4,43.3,29.14,SE,135,0.0,0.9,59,0.02,,,0.02,WUHU216HW,2013-03-10 08:10:00,
2013-03-10 03:15:00,57.2,43.1,29.14,ESE,113,0.0,0.9,59,0.02,,,0.02,WUHU216HW,2013-03-10 08:15:00,
2013-03-10 03:20:00,57.1,43.4,29.14,ESE,113,0.0,0.4,60,0.03,,,0.02,WUHU216HW,2013-03-10 08:20:00,
2013-03-10 03:25:00,56.9,43.6,29.14,ESE,113,0.0,0.0,61,0.03,,,0.02,WUHU216HW,2013-03-10 08:25:00,
2013-03-10 03:30:00,56.7,43.8,29.14,East,90,0.0,0.0,62,0.03,,,0.02,WUHU216HW,2013-03-10 08:30:00,
2013-03-10 03:35:00,56.5,44.0,29.14,East,90,0.0,0.0,63,0.03,,,0.02,WUHU216HW,2013-03-10 08:35:00,
2013-03-10 03:40:00,56.2,44.1,29.14,West,270,0.2,0.7,64,0.04,,,0.04,WUHU216HW,2013-03-10 08:40:00,
2013-03-10 03:45:00,56.0,43.9,29.14,SE,135,0.4,0.7,64,0.04,,,0.04,WUHU216HW,2013-03-10 08:45:00,
2013-03-10 03:50:00,55.6,44.4,29.13,South,180,0.9,2.0,66,0.03,,,0.04,WUHU216HW,2013-03-10 08:50:00,
2013-03-10 03:55:00,55.6,44.4,29.13,SSE,158,0.4,2.0,66,0.04,,,0.04,WUHU216HW,2013-03-10 08:55:00,
2013-03-10 04:00:00,55.6,44.0,29.12,WSW,248,0.0,0.7,65,0.04,,,0.04,WUHU216HW,2013-03-10 09:00:00,
2013-03-10 04:05:00,55.6,44.0,29.12,SSE,158,0.0,0.4,65,0.03,,,0.04,WUHU216HW,2013-03-10 09:05:00,
2013-03-10 04:10:00,55.8,44.2,29.11,SE,135,0.0,0.0,65,0.04,,,0.06,WUHU216HW,2013-03-10 09:10:00,
2013-03-10 04:15:00,55.6,44.4,29.11,SE,135,0.0,0.0,66,0.04,,,0.06,WUHU216HW,2013-03-10 09:15:00,
2013-03-10 04:20:00,55.6,44.4,29.11,SE,135,0.0,0.0,66,0.03,,,0.06,WUHU216HW,2013-03-10 09:20:00,
2013-03-10 04:25:00,55.4,44.6,29.11,SE,135,0.0,0.0,67,0.04,,,0.07,WUHU216HW,2013-03-10 09:25:00,
2013-03-10 04:30:00,55.3,44.5,29.11,SSW,203,0.0,0.4,67,0.04,,,0.07,WUHU216HW,2013-03-10 09:30:00,
2013-03-10 04:35:00,55.1,44.3,29.11,ESE,113,0.0,0.4,67,0.04,,,0.07,WUHU216HW,2013-03-10 09:35:00,
2013-03-10 04:40:00,55.1,44.3,29.11,SE,135,1.1,1.1,67,0.03,,,0.07,WUHU216HW,2013-03-10 09:40:00,
2013-03-10 04:45:00,54.9,44.9,29.11,SSE,158,0.2,1.1,69,0.03,,,0.07,WUHU216HW,2013-03-10 09:45:00,
2013-03-10 04:50:00,54.7,45.2,29.11,SW,225,0.9,1.1,70,0.04,,,0.08,WUHU216HW,2013-03-10 09:50:00,
2013-03-10 04:55:00,54.5,45.0,29.12,SE,135,0.4,0.9,70,0.03,,,0.08,WUHU216HW,2013-03-10 09:55:00,
2013-03-10 05:00:00,54.5,44.6,29.11,ESE,113,0.0,1.3,69,0.03,,,0.08,WUHU216HW,2013-03-10 10:00:00,
2013-03-10 05:05:00,54.7,44.7,29.11,East,90,0.2,1.3,69,0.02,,,0.08,WUHU216HW,2013-03-10 10:05:00,
2013-03-10 05:10:00,54.7,44.7,29.10,East,90,0.4,1.1,69,0.03,,,0.09,WUHU216HW,2013-03-10 10:10:00,
2013-03-10 05:15:00,54.7,44.7,29.10,SE,135,0.0,0.4,69,0.03,,,0.09,WUHU216HW,2013-03-10 10:15:00,
2013-03-10 05:20:00,54.5,44.6,29.10,East,90,0.0,0.4,69,0.02,,,0.09,WUHU216HW,2013-03-10 10:20:00,
2013-03-10 05:25:00,54.4,44.5,29.10,East,90,0.0,0.4,69,0.02,,,0.09,WUHU216HW,2013-03-10 10:25:00,
2013-03-10 05:30:00,54.4,44.8,29.10,East,90,0.4,0.4,70,0.02,,,0.09,WUHU216HW,2013-03-10 10:30:00,
2013-03-10 05:35:00,54.4,44.8,29.09,ESE,113,0.0,0.4,70,0.02,,,0.09,WUHU216HW,2013-03-10 10:35:00,
2013-03-10 05:40:00,54.4,44.8,29.09,East,90,0.2,0.7,70,0.02,,,0.09,WUHU216HW,2013-03-10 10:40:00,
2013-03-10 05:45:00,54.2,44.6,29.09,SE,135,0.2,0.9,70,0.02,,,0.09,WUHU216HW,2013-03-10 10:45:00,
2013-03-10 05:50:00,54.2,45.0,29.09,SE,135,1.6,1.6,71,0.01,,,0.09,WUHU216HW,2013-03-10 10:50:00,
2013-03-10 05:55:00,54.2,45.0,29.09,East,90,0.7,2.5,71,0.01,,,0.09,WUHU216HW,2013-03-10 10:55:00,
2013-03-10 06:00:00,54.2,44.6,29.09,ESE,113,0.0,2.5,70,0.01,,,0.09,WUHU216HW,2013-03-10 11:00:00,
2013-03-10 06:05:00,54.4,44.8,29.08,East,90,0.9,2.5,70,0.00,,,0.09,WUHU216HW,2013-03-10 11:05:00,
2013-03-10 06:10:00,54.4,44.8,29.08,East,90,0.0,2.5,70,0.00,,,0.09,WUHU216HW,2013-03-10 11:10:00,
2013-03-10 06:15:00,54.4,44.8,29.08,SW,225,0.4,2.2,70,0.00,,,0.09,WUHU216HW,2013-03-10 11:15:00,
2013-03-10 06:20:00,54.5,44.6,29.09,East,90,1.1,2.2,69,0.00,,,0.09,WUHU216HW,2013-03-10 11:20:00,
2013-03-10 06:25:00,54.5,45.0,29.08,ESE,113,0.7,1.8,70,0.00,,,0.09,WUHU216HW,2013-03-10 11:25:00,
2013-03-10 06:30:00,54.5,44.6,29.08,SE,135,0.4,2.7,69,0.00,,,0.09,WUHU216HW,2013-03-10 11:30:00,
2013-03-10 06:35:00,54.7,45.2,29.08,SE,135,4.5,4.5,70,0.00,,,0.09,WUHU216HW,2013-03-10 11:35:00,
2013-03-10 06:40:00,54.9,45.4,29.08,ESE,113,2.0,4.5,70,0.00,,,0.09,WUHU216HW,2013-03-10 11:40:00,
2013-03-10 06:45:00,55.1,45.5,29.08,South,180,0.0,2.5,70,0.00,,,0.09,WUHU216HW,2013-03-10 11:45:00,
2013-03-10 06:50:00,55.4,45.9,29.09,ESE,113,0.4,3.1,70,0.00,,,0.09,WUHU216HW,2013-03-10 11:50:00,
2013-03-10 06:55:00,55.6,46.1,29.09,SE,135,0.4,3.1,70,0.00,,,0.09,WUHU216HW,2013-03-10 11:55:00,
2013-03-10 07:00:00,55.6,46.1,29.10,SSE,158,1.8,1.8,70,0.00,,,0.09,WUHU216HW,2013-03-10 12:00:00,
2013-03-10 07:05:00,55.8,46.3,29.10,ESE,113,0.2,2.0,70,0.00,,,0.09,WUHU216HW,2013-03-10 12:05:00,
2013-03-10 07:10:00,56.0,47.4,29.10,SE,135,1.3,2.9,73,0.00,,,0.09,WUHU216HW,2013-03-10 12:10:00,
2013-03-10 07:15:00,56.0,47.1,29.10,SE,135,0.4,2.9,72,0.01,,,0.09,WUHU216HW,2013-03-10 12:15:00,
2013-03-10 07:20:00,56.2,48.3,29.11,SE,135,1.8,3.1,75,0.01,,,0.10,WUHU216HW,2013-03-10 12:20:00,
2013-03-10 07:25:00,56.2,49.3,29.11,South,180,0.7,3.6,78,0.01,,,0.10,WUHU216HW,2013-03-10 12:25:00,
2013-03-10 07:30:00,56.2,49.7,29.11,ESE,113,1.6,3.6,79,0.01,,,0.10,WUHU216HW,2013-03-10 12:30:00,
2013-03-10 07:35:00,56.0,48.8,29.11,South,180,0.2,3.1,77,0.01,,,0.10,WUHU216HW,2013-03-10 12:35:00,
2013-03-10 07:40:00,56.0,50.2,29.11,SE,135,1.1,2.7,81,0.02,,,0.11,WUHU216HW,2013-03-10 12:40:00,
2013-03-10 07:45:00,55.8,50.1,29.11,SSE,158,1.1,2.7,81,0.02,,,0.11,WUHU216HW,2013-03-10 12:45:00,
2013-03-10 07:50:00,55.8,50.1,29.12,SSE,158,0.4,1.6,81,0.02,,,0.11,WUHU216HW,2013-03-10 12:50:00,
2013-03-10 07:55:00,55.8,50.1,29.11,SE,135,1.8,3.4,81,0.03,,,0.12,WUHU216HW,2013-03-10 12:55:00,
2013-03-10 08:00:00,55.8,49.3,29.11,ENE,68,0.9,3.4,79,0.03,,,0.12,WUHU216HW,2013-03-10 13:00:00,
2013-03-10 08:05:00,55.8,49.3,29.11,ESE,113,1.6,1.6,79,0.03,,,0.12,WUHU216HW,2013-03-10 13:05:00,
2013-03-10 08:10:00,55.8,49.7,29.11,SE,135,0.4,1.6,80,0.04,,,0.13,WUHU216HW,2013-03-10 13:10:00,
2013-03-10 08:15:00,55.8,49.3,29.10,ESE,113,0.4,1.3,79,0.03,,,0.13,WUHU216HW,2013-03-10 13:15:00,
2013-03-10 08:20:00,55.8,50.1,29.11,SE,135,0.0,1.8,81,0.03,,,0.13,WUHU216HW,2013-03-10 13:20:00,
2013-03-10 08:25:00,55.8,49.7,29.10,NE,45,2.2,2.2,80,0.04,,,0.13,WUHU216HW,2013-03-10 13:25:00,
2013-03-10 08:30:00,55.8,49.7,29.11,ESE,113,0.4,2.2,80,0.04,,,0.14,WUHU216HW,2013-03-10 13:30:00,
2013-03-10 08:35:00,55.6,49.9,29.11,SE,135,0.2,1.3,81,0.03,,,0.14,WUHU216HW,2013-03-10 13:35:00,
2013-03-10 08:40:00,55.8,50.3,29.11,SE,135,2.2,2.2,82,0.03,,,0.14,WUHU216HW,2013-03-10 13:40:00,
2013-03-10 08:45:00,55.8,50.1,29.10,SSE,158,0.7,2.2,81,0.04,,,0.15,WUHU216HW,2013-03-10 13:45:00,
2013-03-10 08:50:00,55.6,50.1,29.11,SSW,203,0.0,1.1,82,0.03,,,0.15,WUHU216HW,2013-03-10 13:50:00,
2013-03-10 08:55:00,55.6,49.9,29.11,South,180,0.0,1.1,81,0.03,,,0.15,WUHU216HW,2013-03-10 13:55:00,
2013-03-10 09:00:00,55.6,50.1,29.10,SE,135,0.7,0.7,82,0.04,,,0.15,WUHU216HW,2013-03-10 14:00:00,
2013-03-10 09:05:00,55.6,49.9,29.10,SE,135,0.0,0.7,81,0.04,,,0.16,WUHU216HW,2013-03-10 14:05:00,
2013-03-10 09:10:00,55.6,49.9,29.11,ESE,113,0.0,0.0,81,0.03,,,0.16,WUHU216HW,2013-03-10 14:10:00,
2013-03-10 09:15:00,55.8,50.1,29.11,ESE,113,0.0,0.0,81,0.04,,,0.17,WUHU216HW,2013-03-10 14:15:00,
2013-03-10 09:20:00,55.8,50.1,29.11,SW,225,0.0,0.0,81,0.04,,,0.17,WUHU216HW,2013-03-10 14:20:00,
2013-03-10 09:25:00,55.8,50.1,29.10,SW,225,0.0,0.4,81,0.03,,,0.17,WUHU216HW,2013-03-10 14:25:00,
2013-03-10 09:30:00,55.8,50.1,29.10,SE,135,0.4,0.7,81,0.04,,,0.18,WUHU216HW,2013-03-10 14:30:00,
2013-03-10 09:35:00,55.6,50.5,29.09,SE,135,0.4,0.7,83,0.04,,,0.18,WUHU216HW,2013-03-10 14:35:00,
2013-03-10 09:40:00,55.4,50.3,29.10,SE,135,0.0,1.3,83,0.03,,,0.18,WUHU216HW,2013-03-10 14:40:00,
2013-03-10 09:45:00,55.4,50.0,29.08,WSW,248,0.4,1.3,82,0.04,,,0.19,WUHU216HW,2013-03-10 14:45:00,
2013-03-10 09:50:00,55.4,50.0,29.07,WSW,248,0.0,0.7,82,0.04,,,0.19,WUHU216HW,2013-03-10 14:50:00,
2013-03-10 09:55:00,55.4,49.7,29.05,East,90,0.0,0.0,81,0.05,,,0.20,WUHU216HW,2013-03-10 14:55:00,
2013-03-10 10:00:00,55.6,49.9,29.05,East,90,0.0,0.4,81,0.04,,,0.20,WUHU216HW,2013-03-10 15:00:00,
2013-03-10 10:05:00,55.4,50.0,29.07,East,90,0.0,0.4,82,0.04,,,0.20,WUHU216HW,2013-03-10 15:05:00,
2013-03-10 10:10:00,55.4,50.0,29.06,East,90,0.0,0.0,82,0.05,,,0.21,WUHU216HW,2013-03-10 15:10:00,
2013-03-10 10:15:00,55.6,49.9,29.07,East,90,0.0,0.0,81,0.04,,,0.21,WUHU216HW,2013-03-10 15:15:00,
2013-03-10 10:20:00,55.6,49.9,29.07,East,90,0.0,0.0,81,0.04,,,0.21,WUHU216HW,2013-03-10 15:20:00,
2013-03-10 10:25:00,55.6,49.9,29.07,East,90,0.0,0.0,81,0.04,,,0.22,WUHU216HW,2013-03-10 15:25:00,
2013-03-10 10:30:00,55.6,49.9,29.07,East,90,0.0,0.0,81,0.04,,,0.22,WUHU216HW,2013-03-10 15:30:00,
2013-03-10 10:35:00,55.6,49.9,29.08,East,90,0.0,0.0,81,0.04,,,0.22,WUHU216HW,2013-03-10 15:35:00,
2013-03-10 10:40:00,55.6,49.9,29.09,NNW,338,0.7,0.7,81,0.04,,,0.23,WUHU216HW,2013-03-10 15:40:00,
2013-03-10 10:45:00,55.6,50.1,29.09,NNW,338,0.0,0.7,82,0.04,,,0.23,WUHU216HW,2013-03-10 15:45:00,
2013-03-10 10:50:00,55.4,50.0,29.09,East,90,0.4,0.7,82,0.05,,,0.24,WUHU216HW,2013-03-10 15:50:00,
2013-03-10 10:55:00,55.6,50.1,29.10,East,90,0.4,0.4,82,0.05,,,0.24,WUHU216HW,2013-03-10 15:55:00,
2013-03-10 11:00:00,55.4,50.0,29.09,North,0,0.0,0.4,82,0.04,,,0.24,WUHU216HW,2013-03-10 16:00:00,
2013-03-10 11:05:00,55.4,50.0,29.09,North,0,0.0,0.0,82,0.05,,,0.25,WUHU216HW,2013-03-10 16:05:00,
2013-03-10 11:10:00,55.4,50.0,29.07,East,90,0.0,0.4,82,0.04,,,0.25,WUHU216HW,2013-03-10 16:10:00,
2013-03-10 11:15:00,55.4,50.0,29.07,East,90,0.0,0.4,82,0.04,,,0.25,WUHU216HW,2013-03-10 16:15:00,
2013-03-10 11:20:00,55.4,50.0,29.07,East,90,0.0,0.0,82,0.04,,,0.26,WUHU216HW,2013-03-10 16:20:00,
2013-03-10 11:25:00,55.4,50.0,29.07,NNW,338,0.0,0.4,82,0.04,,,0.26,WUHU216HW,2013-03-10 16:25:00,
2013-03-10 11:30:00,55.4,50.0,29.06,NNW,338,0.0,0.4,82,0.05,,,0.27,WUHU216HW,2013-03-10 16:30:00,
2013-03-10 11:35:00,55.4,50.0,29.07,NW,315,0.4,0.9,82,0.05,,,0.27,WUHU216HW,2013-03-10 16:35:00,
2013-03-10 11:40:00,55.3,50.1,29.07,NW,315,0.0,0.9,83,0.04,,,0.27,WUHU216HW,2013-03-10 16:40:00,
2013-03-10 11:45:00,55.3,50.1,29.06,NW,315,0.0,0.2,83,0.05,,,0.28,WUHU216HW,2013-03-10 16:45:00,
2013-03-10 11:50:00,55.3,50.1,29.05,NW,315,0.0,0.0,83,0.04,,,0.28,WUHU216HW,2013-03-10 16:50:00,
2013-03-10 11:55:00,55.4,50.3,29.05,NW,315,0.0,0.0,83,0.04,,,0.28,WUHU216HW,2013-03-10 16:55:00,
2013-03-10 12:00:00,55.4,50.3,29.04,NW,315,0.0,0.0,83,0.05,,,0.29,WUHU216HW,2013-03-10 17:00:00,
2013-03-10 12:05:00,55.4,50.3,29.05,NW,315,0.0,0.0,83,0.04,,,0.29,WUHU216HW,2013-03-10 17:05:00,
2013-03-10 12:10:00,55.4,50.3,29.04,NW,315,0.0,0.0,83,0.05,,,0.29,WUHU216HW,2013-03-10 17:10:00,
2013-03-10 12:15:00,55.4,50.0,29.05,NW,315,0.0,0.0,82,0.04,,,0.30,WUHU216HW,2013-03-10 17:15:00,
2013-03-10 12:20:00,55.4,50.0,29.04,NW,315,0.0,0.0,82,0.04,,,0.30,WUHU216HW,2013-03-10 17:20:00,
2013-03-10 12:25:00,55.4,50.0,29.04,WNW,293,0.9,1.3,82,0.05,,,0.31,WUHU216HW,2013-03-10 17:25:00,
2013-03-10 12:30:00,55.3,50.1,29.04,SSE,158,0.0,1.3,83,0.04,,,0.31,WUHU216HW,2013-03-10 17:30:00,
2013-03-10 12:35:00,55.3,50.1,29.04,NW,315,0.4,0.7,83,0.21,,,0.48,WUHU216HW,2013-03-10 17:35:00,
2013-03-10 12:40:00,55.3,50.1,29.04,SW,225,0.9,1.6,83,0.23,,,0.51,WUHU216HW,2013-03-10 17:40:00,
2013-03-10 12:45:00,55.1,50.3,29.04,WNW,293,0.0,1.6,84,0.26,,,0.53,WUHU216HW,2013-03-10 17:45:00,
2013-03-10 12:50:00,55.3,50.5,29.03,NW,315,1.1,1.1,84,0.28,,,0.56,WUHU216HW,2013-03-10 17:50:00,
2013-03-10 12:55:00,55.3,50.5,29.04,WSW,248,0.0,2.0,84,0.30,,,0.58,WUHU216HW,2013-03-10 17:55:00,
2013-03-10 13:00:00,55.3,50.5,29.04,NW,315,1.8,2.0,84,0.31,,,0.60,WUHU216HW,2013-03-10 18:00:00,
2013-03-10 13:05:00,55.1,50.0,29.04,NW,315,0.4,1.8,83,0.33,,,0.62,WUHU216HW,2013-03-10 18:05:00,
2013-03-10 13:10:00,55.1,50.0,29.04,NW,315,0.0,1.8,83,0.33,,,0.63,WUHU216HW,2013-03-10 18:10:00,
2013-03-10 13:15:00,54.9,49.5,29.05,NW,315,0.4,2.7,82,0.35,,,0.65,WUHU216HW,2013-03-10 18:15:00,
2013-03-10 13:20:00,54.7,49.3,29.06,NW,315,1.6,3.1,82,0.35,,,0.67,WUHU216HW,2013-03-10 18:20:00,
2013-03-10 13:25:00,54.4,49.0,29.08,SSW,203,2.0,3.1,82,0.37,,,0.67,WUHU216HW,2013-03-10 18:25:00,
2013-03-10 13:30:00,54.2,48.8,29.09,NW,315,0.7,2.0,82,0.39,,,0.69,WUHU216HW,2013-03-10 18:30:00,
2013-03-10 13:35:00,53.8,48.8,29.08,WSW,248,0.2,1.6,83,0.21,,,0.71,WUHU216HW,2013-03-10 18:35:00,
2013-03-10 13:40:00,53.6,49.0,29.09,SE,135,2.0,2.0,84,0.18,,,0.72,WUHU216HW,2013-03-10 18:40:00,
2013-03-10 13:45:00,53.5,48.8,29.08,WSW,248,0.4,2.0,84,0.18,,,0.73,WUHU216HW,2013-03-10 18:45:00,
2013-03-10 13:50:00,53.6,48.6,29.08,SSW,203,0.0,0.7,83,0.17,,,0.75,WUHU216HW,2013-03-10 18:50:00,
2013-03-10 13:55:00,53.6,48.6,29.08,WNW,293,0.7,1.8,83,0.16,,,0.76,WUHU216HW,2013-03-10 18:55:00,
2013-03-10 14:00:00,53.6,49.0,29.09,SW,225,0.2,1.8,84,0.16,,,0.77,WUHU216HW,2013-03-10 19:00:00,
2013-03-10 14:05:00,53.5,48.8,29.08,West,270,0.4,1.1,84,0.15,,,0.78,WUHU216HW,2013-03-10 19:05:00,
2013-03-10 14:10:00,53.5,48.8,29.08,WSW,248,1.8,1.8,84,0.15,,,0.80,WUHU216HW,2013-03-10 19:10:00,
2013-03-10 14:15:00,53.5,48.8,29.08,South,180,0.0,1.8,84,0.15,,,0.81,WUHU216HW,2013-03-10 19:15:00,
2013-03-10 14:20:00,53.5,48.8,29.08,SW,225,0.4,1.8,84,0.15,,,0.82,WUHU216HW,2013-03-10 19:20:00,
2013-03-10 14:25:00,53.5,48.4,29.07,South,180,0.0,1.8,83,0.15,,,0.84,WUHU216HW,2013-03-10 19:25:00,
2013-03-10 14:30:00,53.5,48.8,29.06,SSE,158,0.0,0.7,84,0.15,,,0.84,WUHU216HW,2013-03-10 19:30:00,
2013-03-10 14:35:00,53.5,48.8,29.06,SSE,158,0.0,0.2,84,0.15,,,0.84,WUHU216HW,2013-03-10 19:35:00,
2013-03-10 14:57:00,53.5,48.4,29.05,WNW,293,0.0,0.0,83,0.15,,,0.84,WUHU216HW,2013-03-10 19:57:00,
2013-03-10 15:02:00,53.5,48.4,29.04,East,90,0.0,0.2,83,0.15,,,0.93,WUHU216HW,2013-03-10 20:02:00,
2013-03-10 15:07:00,53.5,48.4,29.04,ESE,113,0.0,0.4,83,0.15,,,0.94,WUHU216HW,2013-03-10 20:07:00,
2013-03-10 15:12:00,53.5,48.4,29.04,ESE,113,0.0,0.4,83,0.14,,,0.95,WUHU216HW,2013-03-10 20:12:00,
2013-03-10 15:17:00,53.6,48.6,29.03,East,90,0.9,1.1,83,0.15,,,0.97,WUHU216HW,2013-03-10 20:17:00,
2013-03-10 15:22:00,53.6,48.6,29.03,ESE,113,0.9,1.1,83,0.14,,,0.98,WUHU216HW,2013-03-10 20:22:00,
2013-03-10 15:27:00,53.6,48.6,29.03,East,90,0.4,1.3,83,0.14,,,0.99,WUHU216HW,2013-03-10 20:27:00,
2013-03-10 15:32:00,53.6,48.6,29.03,East,90,1.1,1.3,83,0.14,,,1.00,WUHU216HW,2013-03-10 20:32:00,
2013-03-10 15:37:00,53.5,48.4,29.02,ESE,113,1.6,2.5,83,0.14,,,1.02,WUHU216HW,2013-03-10 20:37:00,
2013-03-10 15:42:00,53.5,48.4,29.01,ESE,113,1.8,2.5,83,0.14,,,1.03,WUHU216HW,2013-03-10 20:42:00,
2013-03-10 15:47:00,53.3,48.2,29.01,ESE,113,0.9,2.5,83,0.14,,,1.04,WUHU216HW,2013-03-10 20:47:00,
2013-03-10 15:52:00,53.3,48.2,29.01,ESE,113,1.1,2.5,83,0.14,,,1.05,WUHU216HW,2013-03-10 20:52:00,
2013-03-10 15:57:00,53.1,48.4,29.01,ESE,113,1.8,3.4,84,0.15,,,1.06,WUHU216HW,2013-03-10 20:57:00,
2013-03-10 16:02:00,52.9,48.5,29.01,ESE,113,4.0,4.0,85,0.14,,,1.08,WUHU216HW,2013-03-10 21:02:00,
2013-03-10 16:07:00,52.9,48.3,29.02,ESE,113,1.8,4.0,84,0.14,,,1.09,WUHU216HW,2013-03-10 21:07:00,
2013-03-10 16:12:00,52.9,48.3,29.01,ENE,68,0.4,2.7,84,0.14,,,1.10,WUHU216HW,2013-03-10 21:12:00,
2013-03-10 16:17:00,52.9,48.3,29.01,ESE,113,1.3,4.0,84,0.14,,,1.11,WUHU216HW,2013-03-10 21:17:00,
2013-03-10 16:22:00,52.9,48.3,29.00,ENE,68,1.1,4.0,84,0.15,,,1.12,WUHU216HW,2013-03-10 21:22:00,
2013-03-10 16:27:00,52.9,49.2,29.02,SE,135,1.1,3.1,87,0.14,,,1.13,WUHU216HW,2013-03-10 21:27:00,
2013-03-10 16:32:00,52.9,48.8,29.04,WSW,248,1.3,2.5,86,0.13,,,1.15,WUHU216HW,2013-03-10 21:32:00,
2013-03-10 16:37:00,52.9,48.8,29.04,ESE,113,0.2,2.5,86,0.13,,,1.16,WUHU216HW,2013-03-10 21:37:00,
2013-03-10 16:42:00,52.9,48.8,29.04,WNW,293,1.6,1.6,86,0.13,,,1.17,WUHU216HW,2013-03-10 21:42:00,
2013-03-10 16:47:00,52.9,48.8,29.03,SSW,203,0.0,1.6,86,0.14,,,1.18,WUHU216HW,2013-03-10 21:47:00,
2013-03-10 16:52:00,52.9,48.8,29.04,East,90,0.2,0.4,86,0.13,,,1.19,WUHU216HW,2013-03-10 21:52:00,
2013-03-10 16:57:00,53.1,49.0,29.03,WNW,293,1.1,1.1,86,0.13,,,1.21,WUHU216HW,2013-03-10 21:57:00,
2013-03-10 17:02:00,53.1,49.0,29.02,WSW,248,0.7,1.1,86,0.13,,,1.21,WUHU216HW,2013-03-10 22:02:00,
2013-03-10 17:08:00,53.1,49.0,29.02,SE,135,1.8,1.8,86,0.13,,,1.21,WUHU216HW,2013-03-10 22:08:00,
2013-03-10 17:13:00,52.9,48.8,29.02,SE,135,0.4,1.8,86,0.11,,,1.23,WUHU216HW,2013-03-10 22:13:00,
2013-03-10 17:18:00,52.9,48.8,29.02,ESE,113,2.0,2.0,86,0.11,,,1.23,WUHU216HW,2013-03-10 22:18:00,
2013-03-10 17:23:00,52.7,48.6,29.03,SSE,158,0.7,2.0,86,0.11,,,1.25,WUHU216HW,2013-03-10 22:23:00,
2013-03-10 17:28:00,52.7,48.6,29.03,SE,135,0.4,1.8,86,0.10,,,1.25,WUHU216HW,2013-03-10 22:28:00,
2013-03-10 17:33:00,52.6,48.4,29.02,SW,225,1.1,1.1,86,0.09,,,1.26,WUHU216HW,2013-03-10 22:33:00,
2013-03-10 17:38:00,52.7,48.6,29.02,SE,135,0.0,1.8,86,0.09,,,1.26,WUHU216HW,2013-03-10 22:38:00,
2013-03-10 17:43:00,52.7,48.6,29.02,East,90,2.5,2.5,86,0.09,,,1.26,WUHU216HW,2013-03-10 22:43:00,
2013-03-10 17:48:00,52.7,48.6,29.03,SW,225,0.9,2.5,86,0.09,,,1.28,WUHU216HW,2013-03-10 22:48:00,
2013-03-10 17:53:00,52.6,48.4,29.02,ENE,68,0.4,2.5,86,0.07,,,1.28,WUHU216HW,2013-03-10 22:53:00,
2013-03-10 17:58:00,52.6,48.4,29.03,SSE,158,0.4,2.5,86,0.08,,,1.28,WUHU216HW,2013-03-10 22:58:00,
2013-03-10 18:03:00,52.6,48.4,29.03,East,90,2.9,2.9,86,0.07,,,1.28,WUHU216HW,2013-03-10 23:03:00,
2013-03-10 18:08:00,52.6,48.8,29.03,SSE,158,0.4,2.9,87,0.07,,,1.30,WUHU216HW,2013-03-10 23:08:00,
2013-03-10 18:13:00,52.6,48.4,29.03,East,90,0.2,2.0,86,0.06,,,1.30,WUHU216HW,2013-03-10 23:13:00,
2013-03-10 18:18:00,52.6,48.4,29.03,East,90,0.4,1.6,86,0.06,,,1.30,WUHU216HW,2013-03-10 23:18:00,
2013-03-10 18:23:00,52.7,48.6,29.03,ESE,113,0.0,1.3,86,0.05,,,1.30,WUHU216HW,2013-03-10 23:23:00,
2013-03-10 18:28:00,52.9,48.8,29.03,ENE,68,2.5,2.5,86,0.04,,,1.30,WUHU216HW,2013-03-10 23:28:00,
2013-03-10 18:33:00,52.9,48.8,29.03,SE,135,0.4,2.5,86,0.03,,,1.30,WUHU216HW,2013-03-10 23:33:00,
2013-03-10 18:38:00,52.9,48.8,29.03,SSE,158,0.2,1.8,86,0.03,,,1.30,WUHU216HW,2013-03-10 23:38:00,
2013-03-10 18:43:00,52.9,48.8,29.04,ESE,113,1.1,1.8,86,0.02,,,1.30,WUHU216HW,2013-03-10 23:43:00,
2013-03-10 18:48:00,52.9,48.8,29.04,SW,225,1.1,1.6,86,0.02,,,1.30,WUHU216HW,2013-03-10 23:48:00,
2013-03-10 18:53:00,52.9,48.8,29.03,North,0,1.1,1.6,86,0.01,,,1.30,WUHU216HW,2013-03-10 23:53:00,
2013-03-10 18:58:00,52.7,48.6,29.03,ESE,113,2.5,2.5,86,0.01,,,1.30,WUHU216HW,2013-03-10 23:58:00,
2013-03-10 19:03:00,52.6,48.4,29.03,ENE,68,0.4,3.8,86,0.01,,,1.30,WUHU216HW,2013-03-11 00:03:00,
2013-03-10 19:08:00,52.6,48.4,29.03,SE,135,1.1,3.8,86,0.00,,,1.30,WUHU216HW,2013-03-11 00:08:00,
2013-03-10 19:13:00,52.4,48.2,29.04,ESE,113,1.1,1.3,86,0.00,,,1.30,WUHU216HW,2013-03-11 00:13:00,
2013-03-10 19:18:00,52.2,48.1,29.04,SE,135,1.6,1.6,86,0.00,,,1.30,WUHU216HW,2013-03-11 00:18:00,
2013-03-10 19:23:00,52.2,48.1,29.04,SE,135,1.6,1.6,86,0.00,,,1.30,WUHU216HW,2013-03-11 00:23:00,
2013-03-10 19:48:00,51.7,47.9,29.04,SE,135,2.2,2.2,87,0.00,,,1.30,WUHU216HW,2013-03-11 00:48:00,
2013-03-10 19:53:00,51.7,47.9,29.04,SE,135,0.4,2.2,87,0.00,,,1.30,WUHU216HW,2013-03-11 00:53:00,
2013-03-10 19:58:00,51.5,47.7,29.05,ESE,113,0.7,1.8,87,0.00,,,1.30,WUHU216HW,2013-03-11 00:58:00,
2013-03-10 20:03:00,51.5,47.7,29.05,SE,135,0.9,1.8,87,0.00,,,1.30,WUHU216HW,2013-03-11 01:03:00,
2013-03-10 20:08:00,51.5,47.7,29.05,SSE,158,0.2,1.3,87,0.00,,,1.30,WUHU216HW,2013-03-11 01:08:00,
2013-03-10 20:14:00,51.5,47.7,29.05,ESE,113,1.8,1.8,87,0.00,,,1.30,WUHU216HW,2013-03-11 01:14:00,
2013-03-10 20:19:00,51.5,47.3,29.05,ESE,113,0.4,1.8,86,0.00,,,1.30,WUHU216HW,2013-03-11 01:19:00,
2013-03-10 20:24:00,51.7,47.9,29.05,SE,135,0.2,1.1,87,0.00,,,1.30,WUHU216HW,2013-03-11 01:24:00,
2013-03-10 20:29:00,51.7,47.9,29.05,ESE,113,0.4,1.8,87,0.00,,,1.30,WUHU216HW,2013-03-11 01:29:00,
2013-03-10 20:34:00,51.7,47.9,29.05,SE,135,0.7,2.9,87,0.00,,,1.30,WUHU216HW,2013-03-11 01:34:00,
2013-03-10 20:39:00,51.7,48.2,29.05,SSE,158,1.1,2.9,88,0.00,,,1.30,WUHU216HW,2013-03-11 01:39:00,
2013-03-10 20:44:00,51.7,48.5,29.05,SE,135,1.8,2.2,89,0.00,,,1.30,WUHU216HW,2013-03-11 01:44:00,
2013-03-10 20:49:00,51.7,48.2,29.05,SE,135,0.4,2.5,88,0.00,,,1.30,WUHU216HW,2013-03-11 01:49:00,
2013-03-10 20:54:00,51.7,48.2,29.05,SE,135,0.4,2.5,88,0.00,,,1.30,WUHU216HW,2013-03-11 01:54:00,
2013-03-10 21:00:00,51.7,48.2,29.06,WNW,293,4.3,4.3,88,0.00,,,1.30,WUHU216HW,2013-03-11 02:00:00,
2013-03-10 21:05:00,51.7,47.5,29.08,NW,315,0.7,4.3,86,0.00,,,1.30,WUHU216HW,2013-03-11 02:05:00,
2013-03-10 21:10:00,51.5,47.3,29.08,NW,315,1.3,2.5,86,0.01,,,1.30,WUHU216HW,2013-03-11 02:10:00,
2013-03-10 21:15:00,51.3,46.9,29.08,SW,225,0.2,1.3,85,0.01,,,1.30,WUHU216HW,2013-03-11 02:15:00,
2013-03-10 21:20:00,51.1,46.7,29.08,WNW,293,1.8,1.8,85,0.02,,,1.32,WUHU216HW,2013-03-11 02:20:00,
2013-03-10 21:25:00,50.9,46.5,29.08,SW,225,0.2,1.8,85,0.02,,,1.32,WUHU216HW,2013-03-11 02:25:00,
2013-03-10 21:30:00,50.8,46.4,29.08,West,270,0.9,1.1,85,0.03,,,1.33,WUHU216HW,2013-03-11 02:30:00,
2013-03-10 21:35:00,50.8,46.4,29.08,SSE,158,0.0,0.9,85,0.03,,,1.33,WUHU216HW,2013-03-11 02:35:00,
2013-03-10 21:40:00,50.8,46.6,29.08,SW,225,0.9,0.9,86,0.04,,,1.34,WUHU216HW,2013-03-11 02:40:00,
2013-03-10 21:45:00,50.6,46.2,29.08,WNW,293,0.2,1.1,85,0.04,,,1.34,WUHU216HW,2013-03-11 02:45:00,
2013-03-10 21:50:00,50.6,46.2,29.08,WNW,293,0.9,1.1,85,0.05,,,1.35,WUHU216HW,2013-03-11 02:50:00,
2013-03-10 21:55:00,50.4,46.0,29.09,WSW,248,0.4,0.9,85,0.05,,,1.35,WUHU216HW,2013-03-11 02:55:00,
2013-03-10 22:00:00,50.4,46.0,29.09,SW,225,0.0,1.1,85,0.06,,,1.36,WUHU216HW,2013-03-11 03:00:00,
2013-03-10 22:05:00,50.2,45.6,29.09,West,270,0.4,3.8,84,0.05,,,1.36,WUHU216HW,2013-03-11 03:05:00,
2013-03-10 22:10:00,50.0,45.0,29.09,NW,315,0.9,3.8,83,0.05,,,1.36,WUHU216HW,2013-03-11 03:10:00,
2013-03-10 22:15:00,49.9,44.8,29.09,WSW,248,0.4,1.8,83,0.06,,,1.37,WUHU216HW,2013-03-11 03:15:00,
2013-03-10 22:20:00,49.7,44.6,29.09,SW,225,1.1,1.1,83,0.05,,,1.37,WUHU216HW,2013-03-11 03:20:00,
2013-03-10 22:25:00,49.5,44.5,29.10,West,270,0.2,2.5,83,0.04,,,1.37,WUHU216HW,2013-03-11 03:25:00,
2013-03-10 22:30:00,49.5,44.5,29.10,WSW,248,2.5,2.5,83,0.05,,,1.38,WUHU216HW,2013-03-11 03:30:00,
2013-03-10 22:35:00,49.3,44.3,29.10,West,270,2.5,2.5,83,0.05,,,1.38,WUHU216HW,2013-03-11 03:35:00,
2013-03-10 22:40:00,49.1,43.8,29.10,SSW,203,0.4,2.5,82,0.04,,,1.38,WUHU216HW,2013-03-11 03:40:00,
2013-03-10 22:45:00,49.0,43.7,29.10,SW,225,0.0,2.0,82,0.04,,,1.38,WUHU216HW,2013-03-11 03:45:00,
2013-03-10 22:50:00,48.6,43.3,29.10,NW,315,0.4,2.0,82,0.04,,,1.39,WUHU216HW,2013-03-11 03:50:00,
2013-03-10 22:55:00,48.6,43.3,29.09,SW,225,0.0,1.6,82,0.04,,,1.39,WUHU216HW,2013-03-11 03:55:00,
2013-03-10 23:00:00,48.6,43.3,29.09,SW,225,0.2,0.9,82,0.03,,,1.39,WUHU216HW,2013-03-11 04:00:00,
2013-03-10 23:05:00,48.4,43.5,29.10,SSE,158,0.7,0.7,83,0.03,,,1.39,WUHU216HW,2013-03-11 04:05:00,
2013-03-10 23:10:00,48.2,42.7,29.09,SW,225,0.0,1.1,81,0.03,,,1.40,WUHU216HW,2013-03-11 04:10:00,
2013-03-10 23:15:00,48.2,42.7,29.09,WNW,293,1.8,1.8,81,0.03,,,1.40,WUHU216HW,2013-03-11 04:15:00,
2013-03-10 23:20:00,48.1,42.5,29.09,WNW,293,0.0,1.8,81,0.03,,,1.40,WUHU216HW,2013-03-11 04:20:00,
2013-03-10 23:25:00,47.9,42.3,29.09,SSE,158,0.4,1.1,81,0.02,,,1.40,WUHU216HW,2013-03-11 04:25:00,
2013-03-10 23:30:00,47.9,42.7,29.09,SE,135,0.2,1.1,82,0.02,,,1.40,WUHU216HW,2013-03-11 04:30:00,
2013-03-10 23:35:00,47.9,42.7,29.09,South,180,0.0,0.4,82,0.02,,,1.40,WUHU216HW,2013-03-11 04:35:00,
2013-03-10 23:40:00,47.9,42.7,29.09,WSW,248,0.0,1.8,82,0.01,,,1.40,WUHU216HW,2013-03-11 04:40:00,
2013-03-10 23:45:00,47.9,42.7,29.09,SW,225,0.0,1.8,82,0.01,,,1.40,WUHU216HW,2013-03-11 04:45:00,
2013-03-10 23:50:00,47.9,42.7,29.09,SW,225,0.0,0.0,82,0.01,,,1.40,WUHU216HW,2013-03-11 04:50:00,
2013-03-10 23:55:00,47.9,42.7,29.09,SW,225,0.0,0.2,82,0.01,,,1.40,WUHU216HW,2013-03-11 04:55:00,